M I D A S
Marine Information and Data Acquisition System
Tripno 148 of the Zeeleeuw from 2001-08-13 06:59:03 to 2001-08-13 17:40:00
Back to CruiseResearch ActivitiesStationsMapUnderway DataData graphs

EquipmentUnitsComments
TimeDGPSUTC
LatitudeDGPSDM.mWGS84
LongitudeDGPSDM.mWGS84
SpeedMeteo Stationm/sRelative wind speed
DirectionMeteo StationdegRelative wind direction
TemperatureMeteo Stationdeg CelciusAir temperature
PressureMeteo StationPaAtmospheric pressure
HumidityMeteo Station%Relative humidity
Missing or incorrect values are displayed as -999
Metereological data collected by the RV Zeeleeuw from 2001-08-13 06:59:03 to 2001-08-13 17:40:00
Time Latitude Longitude Speed Direction Temperature Pressure Humidity
2001-08-13 07:00 51°13.677 2°55.924 6.5 238 18.1 101330 79
2001-08-13 07:01 51°13.676 2°55.924 6.1 209 18.1 101320 79
2001-08-13 07:02 51°13.677 2°55.924 5.8 230 18.1 101320 79
2001-08-13 07:03 51°13.677 2°55.923 6.9 235 18.1 101320 79
2001-08-13 07:04 51°13.677 2°55.923 7.3 246 18 101310 79
2001-08-13 07:05 51°13.677 2°55.922 5.2 221 18 101320 79
2001-08-13 07:06 51°13.676 2°55.923 6.6 273 18 101320 79
2001-08-13 07:07 51°13.676 2°55.923 4.7 237 18 101320 79
2001-08-13 07:08 51°13.676 2°55.923 6.9 222 18.1 101310 79
2001-08-13 07:09 51°13.676 2°55.923 4.9 231 18.1 101310 79
2001-08-13 07:10 51°13.676 2°55.923 5.6 222 18.1 101320 79
2001-08-13 07:11 51°13.677 2°55.923 6 212 18.1 101320 79
2001-08-13 07:12 51°13.677 2°55.923 6.5 239 18.1 101330 79
2001-08-13 07:14 51°13.677 2°55.923 4.7 245 18.1 101330 79
2001-08-13 07:15 51°13.677 2°55.923 4.3 209 18.1 101330 79
2001-08-13 07:16 51°13.676 2°55.923 5.4 222 18.1 101340 79
2001-08-13 07:17 51°13.676 2°55.922 4.5 219 18.2 101340 78
2001-08-13 07:18 51°13.677 2°55.922 6.2 315 18.1 101340 78
2001-08-13 07:19 51°13.677 2°55.923 4.9 235 18.1 101340 78
2001-08-13 07:20 51°13.677 2°55.923 7.6 232 18.2 101350 79
2001-08-13 07:21 51°13.677 2°55.923 4.8 225 18.2 101340 78
2001-08-13 07:22 51°13.676 2°55.923 4.4 233 18.2 101350 78
2001-08-13 07:23 51°13.676 2°55.923 7 225 18.2 101350 78
2001-08-13 07:24 51°13.676 2°55.923 5.5 228 18.2 101350 78
2001-08-13 07:25 51°13.677 2°55.923 6.7 238 18.2 101350 78
2001-08-13 07:26 51°13.677 2°55.922 6.1 229 18.2 101340 78
2001-08-13 07:27 51°13.677 2°55.923 5.3 241 18.2 101340 78
2001-08-13 07:28 51°13.677 2°55.923 6.5 226 18.2 101350 78
2001-08-13 07:29 51°13.677 2°55.922 7.7 255 18.2 101350 78
2001-08-13 07:30 51°13.677 2°55.923 5.8 238 18.2 101340 78
2001-08-13 07:31 51°13.677 2°55.924 8 230 18.2 101350 78
2001-08-13 07:32 51°13.676 2°55.923 5.7 213 18.2 101340 78
2001-08-13 07:33 51°13.677 2°55.925 4.5 230 18.1 101350 78
2001-08-13 07:34 51°13.677 2°55.925 5 232 18.2 101350 79
2001-08-13 07:35 51°13.677 2°55.924 4.1 218 18.2 101350 78
2001-08-13 07:36 51°13.677 2°55.924 5.9 232 18.2 101340 78
2001-08-13 07:37 51°13.677 2°55.925 4.9 236 18.2 101350 79
2001-08-13 07:38 51°13.676 2°55.925 4.2 207 18.2 101350 78
2001-08-13 07:39 51°13.674 2°55.925 6 196 18.2 101350 78
2001-08-13 07:40 51°13.674 2°55.923 4.4 206 18.2 101350 78
2001-08-13 07:41 51°13.677 2°55.907 3.9 208 18.2 101350 79
2001-08-13 07:42 51°13.683 2°55.852 2.9 156 18.2 101360 79
2001-08-13 07:43 51°13.679 2°55.776 1.8 184 18.2 101360 78
2001-08-13 07:44 51°13.682 2°55.751 2.1 61 18.3 101360 78
2001-08-13 07:45 51°13.754 2°55.716 5.5 43 18.3 101360 77
2001-08-13 07:46 51°13.848 2°55.63 1.5 89 18.3 101350 77
2001-08-13 07:47 51°13.951 2°55.554 2.4 28 18.3 101350 78
2001-08-13 07:48 51°14.059 2°55.478 2.6 135 18.3 101360 78
2001-08-13 07:49 51°14.164 2°55.397 7.9 35 18.3 101360 78
2001-08-13 07:50 51°14.254 2°55.284 12.9 36 18.3 101350 79
2001-08-13 07:51 51°14.328 2°55.151 11.2 39 18.3 101340 80
2001-08-13 07:52 51°14.404 2°55.02 13.2 348 18.2 101330 81
2001-08-13 07:53 51°14.505 2°54.889 8.6 144 18.1 101340 82
2001-08-13 07:55 51°14.673 2°54.766 5.2 155 18 101340 82
2001-08-13 07:56 51°14.721 2°54.74 5.5 349 17.9 101330 82
2001-08-13 07:57 51°14.779 2°54.687 8.6 15 17.9 101330 83
2001-08-13 07:58 51°14.883 2°54.591 11 53 17.9 101330 84
2001-08-13 07:59 51°15.024 2°54.462 10.8 323 17.9 101310 84
2001-08-13 08:00 51°15.194 2°54.298 9.4 317 17.9 101310 84
2001-08-13 08:01 51°15.367 2°54.124 9.3 37 18 101300 84
2001-08-13 08:02 51°15.537 2°53.94 13.5 56 17.9 101300 84
2001-08-13 08:03 51°15.719 2°53.759 15 64 17.9 101300 84
2001-08-13 08:04 51°15.908 2°53.608 13.7 19 17.9 101320 84
2001-08-13 08:05 51°16.067 2°53.465 11.8 47 17.8 101320 84
2001-08-13 08:06 51°16.244 2°53.291 10 50 17.8 101320 84
2001-08-13 08:07 51°16.433 2°53.105 13.9 51 17.8 101320 84
2001-08-13 08:08 51°16.617 2°52.929 15.1 22 17.8 101310 84
2001-08-13 08:09 51°16.809 2°52.756 11.7 337 17.8 101310 84
2001-08-13 08:10 51°17.013 2°52.611 13 41 17.8 101330 85
2001-08-13 08:11 51°17.208 2°52.44 14.4 24 17.8 101320 85
2001-08-13 08:12 51°17.402 2°52.266 8.8 40 17.8 101320 85
2001-08-13 08:13 51°17.591 2°52.074 16.7 45 17.8 101290 84
2001-08-13 08:14 51°17.751 2°51.833 13.9 42 17.8 101310 85
2001-08-13 08:15 51°17.895 2°51.582 14.1 131 17.8 101310 85
2001-08-13 08:16 51°18.045 2°51.335 16.3 43 17.8 101310 85
2001-08-13 08:17 51°18.175 2°51.066 19.6 38 17.8 101300 85
2001-08-13 08:18 51°18.294 2°50.784 23.1 37 17.8 101320 85
2001-08-13 08:19 51°18.403 2°50.502 11.5 46 17.8 101300 85
2001-08-13 08:20 51°18.52 2°50.224 25.8 32 17.8 101320 85
2001-08-13 08:21 51°18.583 2°49.908 24 33 17.8 101310 86
2001-08-13 08:22 51°18.648 2°49.596 24.7 33 17.8 101300 86
2001-08-13 08:23 51°18.712 2°49.27 21 25 17.7 101310 86
2001-08-13 08:24 51°18.784 2°48.953 22.1 30 17.7 101320 86
2001-08-13 08:25 51°18.861 2°48.653 23 30 17.7 101300 86
2001-08-13 08:26 51°18.945 2°48.343 22.3 25 17.7 101300 87
2001-08-13 08:27 51°19.008 2°48.025 22.1 31 17.7 101310 87
2001-08-13 08:28 51°19.074 2°47.711 26 28 17.7 101310 87
2001-08-13 08:29 51°19.14 2°47.403 24.7 31 17.6 101280 87
2001-08-13 08:30 51°19.226 2°47.099 23.4 24 17.7 101320 87
2001-08-13 08:31 51°19.284 2°46.791 23.1 28 17.7 101320 87
2001-08-13 08:32 51°19.359 2°46.482 23.4 30 17.6 101310 87
2001-08-13 08:33 51°19.412 2°46.165 19.8 34 17.7 101330 88
2001-08-13 08:34 51°19.492 2°45.868 24.2 36 17.6 101320 87
2001-08-13 08:35 51°19.574 2°45.565 23.6 29 17.6 101320 87
2001-08-13 08:36 51°19.65 2°45.253 23.9 28 17.6 101320 87
2001-08-13 08:37 51°19.725 2°44.932 20.8 22 17.6 101330 87
2001-08-13 08:38 51°19.791 2°44.642 23.9 27 17.6 101320 87
2001-08-13 08:39 51°19.861 2°44.339 25.7 30 17.6 101310 87
2001-08-13 08:40 51°19.91 2°44.018 22 26 17.6 101330 87
2001-08-13 08:41 51°19.962 2°43.705 19.6 25 17.6 101330 87
2001-08-13 08:42 51°19.995 2°43.386 22.8 34 17.6 101320 88
2001-08-13 08:43 51°20.05 2°43.052 22.8 33 17.6 101330 87
2001-08-13 08:44 51°20.106 2°42.749 25.4 33 17.6 101320 87
2001-08-13 08:45 51°20.157 2°42.43 19.4 21 17.6 101320 88
2001-08-13 08:46 51°20.187 2°42.102 19.2 22 17.6 101330 88
2001-08-13 08:47 51°20.243 2°41.786 20.7 30 17.6 101340 88
2001-08-13 08:48 51°20.275 2°41.462 22.6 22 17.6 101330 88
2001-08-13 08:49 51°20.298 2°41.138 21.3 28 17.5 101330 88
2001-08-13 08:50 51°20.347 2°40.815 21.4 13 17.5 101310 88
2001-08-13 08:51 51°20.348 2°40.491 20.8 5 17.5 101330 88
2001-08-13 08:52 51°20.323 2°40.163 23.8 19 17.5 101330 88
2001-08-13 08:53 51°20.358 2°39.859 21.4 28 17.5 101320 88
2001-08-13 08:54 51°20.385 2°39.53 23 22 17.5 101330 88
2001-08-13 08:55 51°20.409 2°39.195 18.8 19 17.5 101330 88
2001-08-13 08:56 51°20.438 2°38.866 22.3 25 17.5 101320 88
2001-08-13 08:57 51°20.478 2°38.557 23.3 22 17.5 101340 88
2001-08-13 08:58 51°20.511 2°38.232 19.8 24 17.5 101320 88
2001-08-13 08:59 51°20.522 2°37.909 23.3 28 17.5 101350 89
2001-08-13 09:00 51°20.603 2°37.601 23 41 17.5 101320 88
2001-08-13 09:01 51°20.702 2°37.295 21.4 41 17.5 101320 88
2001-08-13 09:02 51°20.81 2°37.016 21.5 320 17.4 101300 88
2001-08-13 09:03 51°20.941 2°36.746 13.7 42 17.5 101320 88
2001-08-13 09:04 51°21.09 2°36.5 12.9 127 17.5 101350 88
2001-08-13 09:05 51°21.284 2°36.333 7.2 338 17.4 101370 88
2001-08-13 09:06 51°21.489 2°36.179 10.7 132 17.5 101350 89
2001-08-13 09:07 51°21.698 2°36.044 4.1 56 17.5 101350 88
2001-08-13 09:08 51°21.922 2°35.963 6 299 17.5 101380 88
2001-08-13 09:09 51°22.156 2°35.892 5.9 125 17.4 101380 89
2001-08-13 09:10 51°22.366 2°35.765 7.3 181 17.4 101330 88
2001-08-13 09:11 51°22.58 2°35.649 9.8 67 17.4 101350 88
2001-08-13 09:12 51°22.786 2°35.496 11.6 330 17.4 101360 89
2001-08-13 09:13 51°22.99 2°35.341 8.4 333 17.4 101350 88
2001-08-13 09:14 51°23.192 2°35.177 9.5 124 17.4 101350 89
2001-08-13 09:15 51°23.37 2°34.966 7 45 17.5 101350 89
2001-08-13 09:16 51°23.53 2°34.726 8.2 134 17.5 101330 89
2001-08-13 09:17 51°23.657 2°34.447 17.6 41 17.5 101320 89
2001-08-13 09:18 51°23.775 2°34.16 15.8 42 17.5 101320 89
2001-08-13 09:19 51°23.892 2°33.866 12.6 44 17.5 101310 89
2001-08-13 09:20 51°24.06 2°33.652 11.8 50 17.5 101330 88
2001-08-13 09:21 51°24.279 2°33.551 5.9 120 17.5 101370 89
2001-08-13 09:22 51°24.504 2°33.507 2.4 342 17.5 101360 89
2001-08-13 09:23 51°24.731 2°33.542 3.9 116 17.5 101360 89
2001-08-13 09:24 51°24.953 2°33.637 2.7 108 17.4 101370 89
2001-08-13 09:25 51°25.182 2°33.674 0.8 80 17.5 101380 89
2001-08-13 09:26 51°25.41 2°33.736 1.2 75 17.5 101390 89
2001-08-13 09:27 51°25.632 2°33.818 0.7 92 17.5 101380 89
2001-08-13 09:28 51°25.865 2°33.892 1.7 103 17.4 101380 89
2001-08-13 09:29 51°26.09 2°33.951 3.5 93 17.4 101380 89
2001-08-13 09:30 51°26.313 2°34.051 2.5 112 17.4 101380 89
2001-08-13 09:31 51°26.533 2°34.149 1.1 105 17.5 101360 89
2001-08-13 09:32 51°26.76 2°34.211 1.3 105 17.5 101370 89
2001-08-13 09:33 51°26.989 2°34.301 0.6 88 17.5 101360 89
2001-08-13 09:34 51°27.217 2°34.407 2.9 116 17.5 101370 89
2001-08-13 09:35 51°27.441 2°34.498 0.5 129 17.5 101350 89
2001-08-13 09:36 51°27.669 2°34.591 4.2 107 17.5 101360 89
2001-08-13 09:37 51°27.893 2°34.707 1.4 93 17.5 101360 89
2001-08-13 09:38 51°28.128 2°34.789 5.8 109 17.5 101350 89
2001-08-13 09:39 51°28.346 2°34.912 1.4 98 17.5 101370 89
2001-08-13 09:40 51°28.568 2°35.013 1.9 291 17.5 101370 89
2001-08-13 09:41 51°28.796 2°34.98 3.8 335 17.5 101330 89
2001-08-13 09:42 51°29.03 2°35.013 0.5 91 17.5 101360 89
2001-08-13 09:43 51°29.257 2°35.082 4.1 115 17.5 101350 89
2001-08-13 09:44 51°29.48 2°35.186 2.8 113 17.5 101350 89
2001-08-13 09:45 51°29.707 2°35.29 6.5 107 17.5 101360 89
2001-08-13 09:46 51°29.925 2°35.42 4.6 99 17.5 101360 89
2001-08-13 09:47 51°30.151 2°35.511 4.5 109 17.5 101350 89
2001-08-13 09:48 51°30.376 2°35.638 3 110 17.5 101360 89
2001-08-13 09:49 51°30.597 2°35.77 0.7 255 17.5 101370 89
2001-08-13 09:50 51°30.809 2°35.902 3.2 117 17.5 101370 89
2001-08-13 09:51 51°31.038 2°35.994 1.4 73 17.5 101360 89
2001-08-13 09:52 51°31.261 2°36.095 2.4 86 17.5 101370 89
2001-08-13 09:53 51°31.482 2°36.207 4.5 118 17.5 101370 89
2001-08-13 09:54 51°31.705 2°36.321 3.6 107 17.5 101360 89
2001-08-13 09:55 51°31.925 2°36.436 2.8 112 17.5 101360 89
2001-08-13 09:56 51°32.152 2°36.504 3.1 105 17.5 101370 89
2001-08-13 09:57 51°32.382 2°36.571 2.1 86 17.5 101380 89
2001-08-13 09:58 51°32.612 2°36.652 4.4 104 17.5 101360 89
2001-08-13 09:59 51°32.842 2°36.736 2.2 95 17.5 101360 89
2001-08-13 10:00 51°33.064 2°36.844 0.9 100 17.5 101360 89
2001-08-13 10:01 51°33.291 2°36.903 1.4 85 17.5 101350 89
2001-08-13 10:02 51°33.519 2°36.938 4 107 17.5 101350 89
2001-08-13 10:03 51°33.749 2°37.024 3.4 113 17.5 101350 89
2001-08-13 10:04 51°33.976 2°37.12 1 84 17.6 101350 89
2001-08-13 10:05 51°34.218 2°37.144 0.8 82 17.5 101330 89
2001-08-13 10:06 51°34.443 2°37.166 0.8 92 17.6 101360 89
2001-08-13 10:07 51°34.676 2°37.206 1.5 35 17.6 101350 89
2001-08-13 10:08 51°34.906 2°37.23 2.4 115 17.6 101350 89
2001-08-13 10:09 51°35.135 2°37.282 1.1 109 17.5 101350 89
2001-08-13 10:10 51°35.364 2°37.324 1.4 113 17.6 101350 89
2001-08-13 10:11 51°35.594 2°37.352 2.1 94 17.5 101340 89
2001-08-13 10:12 51°35.822 2°37.386 1.5 81 17.6 101360 89
2001-08-13 10:13 51°36.05 2°37.429 1.7 101 17.6 101350 89
2001-08-13 10:14 51°36.277 2°37.485 0.6 94 17.5 101350 89
2001-08-13 10:15 51°36.506 2°37.509 1.1 102 17.6 101350 89
2001-08-13 10:16 51°36.735 2°37.545 1.8 96 17.6 101350 89
2001-08-13 10:17 51°36.966 2°37.559 4 98 17.6 101340 89
2001-08-13 10:18 51°37.193 2°37.628 4.3 114 17.6 101360 89
2001-08-13 10:19 51°37.417 2°37.705 1.2 85 17.6 101350 89
2001-08-13 10:20 51°37.652 2°37.746 1.8 97 17.6 101340 89
2001-08-13 10:21 51°37.874 2°37.803 1.7 102 17.6 101340 89
2001-08-13 10:22 51°38.103 2°37.852 1.9 97 17.6 101350 89
2001-08-13 10:23 51°38.329 2°37.894 0.6 73 17.6 101340 89
2001-08-13 10:24 51°38.559 2°37.914 2.2 93 17.6 101330 89
2001-08-13 10:25 51°38.796 2°37.95 1.8 98 17.6 101340 89
2001-08-13 10:26 51°39.027 2°38 0.9 85 17.6 101330 89
2001-08-13 10:27 51°39.249 2°38.041 2.9 107 17.6 101330 89
2001-08-13 10:28 51°39.48 2°38.102 1.2 119 17.6 101330 90
2001-08-13 10:29 51°39.71 2°38.155 2.7 110 17.7 101330 90
2001-08-13 10:30 51°39.935 2°38.231 0.6 99 17.6 101320 89
2001-08-13 10:31 51°40.153 2°38.296 3.5 102 17.6 101330 89
2001-08-13 10:32 51°40.381 2°38.355 1.9 108 17.6 101330 90
2001-08-13 10:33 51°40.615 2°38.414 2 94 17.6 101320 89
2001-08-13 10:34 51°40.839 2°38.454 4.7 106 17.6 101320 89
2001-08-13 10:35 51°41.072 2°38.491 2.6 109 17.6 101320 90
2001-08-13 10:36 51°41.311 2°38.531 2.6 97 17.6 101320 89
2001-08-13 10:37 51°41.54 2°38.589 2.9 110 17.7 101330 90
2001-08-13 10:38 51°41.773 2°38.634 3.9 106 17.7 101310 89
2001-08-13 10:39 51°41.996 2°38.694 2.3 94 17.7 101320 89
2001-08-13 10:40 51°42.233 2°38.744 1.6 90 17.6 101310 89
2001-08-13 10:41 51°42.464 2°38.804 3.7 95 17.7 101330 90
2001-08-13 10:42 51°42.682 2°38.862 0.8 89 17.7 101340 89
2001-08-13 10:43 51°42.907 2°38.913 4.9 109 17.7 101330 89
2001-08-13 10:44 51°43.141 2°38.984 2.6 116 17.7 101330 89
2001-08-13 10:45 51°43.367 2°39.051 5.4 110 17.7 101330 89
2001-08-13 10:46 51°43.59 2°39.125 1.5 104 17.7 101330 89
2001-08-13 10:47 51°43.795 2°39.182 4.8 123 17.7 101320 89
2001-08-13 10:48 51°43.894 2°39.14 6.7 303 17.7 101320 89
2001-08-13 10:49 51°43.916 2°39.04 12.7 19 17.7 101300 89
2001-08-13 10:50 51°43.878 2°38.993 9.9 333 17.7 101300 89
2001-08-13 10:51 51°43.829 2°39.009 11.7 327 17.7 101290 89
2001-08-13 10:52 51°43.806 2°39.021 9.5 335 17.7 101300 89
2001-08-13 10:53 51°43.783 2°39.028 9.8 349 17.7 101320 90
2001-08-13 10:54 51°43.738 2°39.008 10.1 330 17.7 101320 90
2001-08-13 10:55 51°43.707 2°39.009 10.4 347 17.7 101310 90
2001-08-13 10:56 51°43.704 2°39.019 9.5 326 17.6 101310 90
2001-08-13 10:57 51°43.715 2°39.037 8.2 302 17.6 101300 90
2001-08-13 10:58 51°43.726 2°39.056 9.3 265 17.6 101310 90
2001-08-13 10:59 51°43.732 2°39.076 8.2 268 17.6 101310 90
2001-08-13 11:00 51°43.736 2°39.098 11.6 274 17.7 101310 90
2001-08-13 11:01 51°43.729 2°39.122 11.1 308 17.6 101310 90
2001-08-13 11:02 51°43.691 2°39.176 10.6 268 17.6 101290 90
2001-08-13 11:03 51°43.649 2°39.262 9.7 279 17.7 101310 90
2001-08-13 11:04 51°43.608 2°39.373 10.1 277 17.6 101300 90
2001-08-13 11:05 51°43.557 2°39.486 8.8 278 17.7 101300 90
2001-08-13 11:06 51°43.467 2°39.674 10.2 277 17.6 101290 90
2001-08-13 11:07 51°43.36 2°39.919 8.2 281 17.7 101290 90
2001-08-13 11:08 51°43.263 2°40.142 7.5 296 17.6 101300 90
2001-08-13 11:09 51°43.197 2°40.204 11.4 336 17.6 101290 90
2001-08-13 11:10 51°43.173 2°40.205 10.1 349 17.6 101300 90
2001-08-13 11:11 51°43.174 2°40.216 10.1 340 17.7 101310 90
2001-08-13 11:12 51°43.186 2°40.234 5.7 295 17.7 101310 90
2001-08-13 11:13 51°43.199 2°40.248 10 269 17.7 101310 90
2001-08-13 11:14 51°43.2 2°40.273 7.6 285 17.7 101310 90
2001-08-13 11:15 51°43.2 2°40.297 10.2 279 17.7 101310 90
2001-08-13 11:16 51°43.205 2°40.317 6.6 277 17.7 101310 90
2001-08-13 11:17 51°43.212 2°40.336 10.2 279 17.7 101310 90
2001-08-13 11:18 51°43.186 2°40.407 8.6 281 17.7 101300 90
2001-08-13 11:19 51°43.073 2°40.644 10.4 306 17.7 101300 90
2001-08-13 11:20 51°42.928 2°40.892 11.7 302 17.7 101290 90
2001-08-13 11:21 51°42.8 2°41.156 9.6 305 17.7 101300 90
2001-08-13 11:22 51°42.678 2°41.316 11.5 316 17.7 101290 90
2001-08-13 11:23 51°42.629 2°41.339 9.5 333 17.7 101320 90
2001-08-13 11:24 51°42.617 2°41.348 9.3 334 17.7 101320 90
2001-08-13 11:25 51°42.621 2°41.366 10.2 300 17.6 101310 90
2001-08-13 11:26 51°42.631 2°41.382 9.4 272 17.7 101320 90
2001-08-13 11:27 51°42.623 2°41.434 9.4 248 17.7 101310 90
2001-08-13 11:28 51°42.509 2°41.56 14.1 340 17.7 101290 90
2001-08-13 11:29 51°42.318 2°41.499 16 338 17.7 101290 90
2001-08-13 11:30 51°42.114 2°41.505 15.9 355 17.7 101280 90
2001-08-13 11:31 51°41.904 2°41.436 13.9 351 17.7 101270 90
2001-08-13 11:32 51°41.7 2°41.347 17 343 17.7 101290 90
2001-08-13 11:33 51°41.503 2°41.268 18.8 350 17.7 101270 90
2001-08-13 11:34 51°41.298 2°41.157 18.1 349 17.7 101270 90
2001-08-13 11:35 51°41.092 2°41.089 15.6 345 17.8 101280 90
2001-08-13 11:36 51°40.885 2°41.017 14.8 335 17.8 101280 90
2001-08-13 11:37 51°40.726 2°40.971 14 353 17.7 101300 90
2001-08-13 11:38 51°40.68 2°40.922 11.9 2 17.7 101320 90
2001-08-13 11:39 51°40.681 2°40.912 12.9 35 17.7 101300 90
2001-08-13 11:40 51°40.691 2°40.92 5.1 337 17.7 101320 90
2001-08-13 11:41 51°40.7 2°40.929 1.2 62 17.7 101320 90
2001-08-13 11:42 51°40.712 2°40.925 4.4 347 17.7 101350 90
2001-08-13 11:43 51°40.772 2°40.789 13.4 16 17.7 101320 90
2001-08-13 11:44 51°40.864 2°40.542 14 57 17.7 101290 90
2001-08-13 11:45 51°40.992 2°40.281 10.3 317 17.7 101300 90
2001-08-13 11:46 51°41.126 2°40.013 11 55 17.7 101290 90
2001-08-13 11:47 51°41.244 2°39.724 9.6 48 17.7 101310 90
2001-08-13 11:48 51°41.277 2°39.565 9.1 47 17.7 101300 90
2001-08-13 11:49 51°41.289 2°39.563 10.3 50 17.7 101320 90
2001-08-13 11:50 51°41.294 2°39.586 0.6 85 17.7 101310 90
2001-08-13 11:51 51°41.296 2°39.603 3.8 110 17.6 101350 90
2001-08-13 11:52 51°41.302 2°39.615 2.5 108 17.7 101360 90
2001-08-13 11:53 51°41.317 2°39.615 0.7 71 17.6 101340 90
2001-08-13 11:54 51°41.391 2°39.434 13 25 17.6 101320 90
2001-08-13 11:55 51°41.508 2°39.147 14 60 17.7 101300 91
2001-08-13 11:56 51°41.637 2°38.859 9.5 44 17.6 101310 90
2001-08-13 11:57 51°41.763 2°38.571 11.3 335 17.6 101310 90
2001-08-13 11:58 51°41.858 2°38.361 8.9 48 17.6 101320 91
2001-08-13 11:59 51°41.873 2°38.311 10 47 17.7 101310 91
2001-08-13 12:00 51°41.884 2°38.308 5.6 323 17.7 101330 90
2001-08-13 12:01 51°41.893 2°38.311 0.7 66 17.7 101340 91
2001-08-13 12:02 51°41.903 2°38.317 1.7 107 17.6 101350 90
2001-08-13 12:03 51°41.925 2°38.227 16.2 32 17.6 101320 91
2001-08-13 12:04 51°41.839 2°38.127 11.7 330 17.7 101330 91
2001-08-13 12:05 51°41.704 2°38.105 15.3 354 17.7 101310 91
2001-08-13 12:06 51°41.55 2°38.067 14.7 342 17.6 101300 91
2001-08-13 12:07 51°41.402 2°38.007 15.3 353 17.6 101330 91
2001-08-13 12:08 51°41.249 2°37.939 15.4 345 17.6 101300 90
2001-08-13 12:09 51°41.09 2°37.875 13.6 347 17.6 101320 90
2001-08-13 12:10 51°40.94 2°37.802 17.8 351 17.6 101330 91
2001-08-13 12:11 51°40.789 2°37.731 16.4 350 17.6 101320 90
2001-08-13 12:12 51°40.639 2°37.662 16.5 345 17.7 101320 91
2001-08-13 12:13 51°40.49 2°37.606 12.8 350 17.7 101330 91
2001-08-13 12:14 51°40.335 2°37.533 17 348 17.7 101330 91
2001-08-13 12:15 51°40.196 2°37.46 12.5 350 17.7 101350 91
2001-08-13 12:16 51°40.117 2°37.423 12.9 349 17.7 101330 90
2001-08-13 12:17 51°40.023 2°37.395 16.3 343 17.7 101330 91
2001-08-13 12:18 51°39.951 2°37.381 11 340 17.6 101330 91
2001-08-13 12:19 51°39.942 2°37.39 9.8 304 17.6 101330 91
2001-08-13 12:20 51°39.944 2°37.397 8.9 270 17.6 101320 91
2001-08-13 12:21 51°39.946 2°37.402 11.3 247 17.6 101330 91
2001-08-13 12:22 51°39.948 2°37.409 9 227 17.6 101320 91
2001-08-13 12:23 51°39.948 2°37.416 8.5 248 17.6 101320 91
2001-08-13 12:24 51°39.9 2°37.543 12.2 271 17.6 101330 91
2001-08-13 12:25 51°39.799 2°37.755 14 274 17.6 101310 91
2001-08-13 12:26 51°39.688 2°37.982 12 275 17.6 101320 91
2001-08-13 12:27 51°39.579 2°38.21 7.8 298 17.6 101320 91
2001-08-13 12:28 51°39.486 2°38.388 12.2 271 17.6 101330 91
2001-08-13 12:29 51°39.444 2°38.444 9.4 297 17.6 101320 91
2001-08-13 12:30 51°39.444 2°38.458 8.9 266 17.5 101310 91
2001-08-13 12:31 51°39.447 2°38.466 10.9 244 17.6 101320 91
2001-08-13 12:32 51°39.451 2°38.471 8.7 235 17.6 101330 91
2001-08-13 12:33 51°39.454 2°38.478 10.1 237 17.6 101320 91
2001-08-13 12:34 51°39.44 2°38.526 10.8 274 17.6 101330 91
2001-08-13 12:35 51°39.331 2°38.714 7.6 292 17.6 101310 91
2001-08-13 12:36 51°39.21 2°38.943 10.6 293 17.6 101310 91
2001-08-13 12:37 51°39.074 2°39.16 8.7 286 17.6 101310 91
2001-08-13 12:38 51°38.954 2°39.388 8 279 17.6 101310 91
2001-08-13 12:39 51°38.862 2°39.518 9.5 297 17.5 101310 91
2001-08-13 12:40 51°38.817 2°39.555 10.1 300 17.6 101330 92
2001-08-13 12:41 51°38.81 2°39.566 12 272 17.5 101310 91
2001-08-13 12:42 51°38.81 2°39.576 11.8 257 17.5 101330 91
2001-08-13 12:43 51°38.81 2°39.583 9.2 248 17.5 101320 91
2001-08-13 12:44 51°38.81 2°39.591 7.9 229 17.5 101330 91
2001-08-13 12:45 51°38.807 2°39.601 10.1 244 17.6 101320 91
2001-08-13 12:46 51°38.804 2°39.612 11.5 254 17.6 101320 91
2001-08-13 12:47 51°38.794 2°39.637 11.4 250 17.6 101330 91
2001-08-13 12:48 51°38.734 2°39.706 11.8 321 17.6 101310 91
2001-08-13 12:49 51°38.545 2°39.718 15.5 338 17.6 101280 91
2001-08-13 12:50 51°38.331 2°39.666 17.2 345 17.6 101290 91
2001-08-13 12:51 51°38.106 2°39.616 18.1 340 17.6 101280 91
2001-08-13 12:52 51°37.895 2°39.565 17.8 337 17.6 101320 92
2001-08-13 12:53 51°37.68 2°39.518 16 348 17.6 101300 92
2001-08-13 12:54 51°37.467 2°39.434 17.5 340 17.6 101300 92
2001-08-13 12:55 51°37.25 2°39.38 16.8 350 17.6 101290 92
2001-08-13 12:56 51°37.035 2°39.314 19.6 347 17.6 101300 92
2001-08-13 12:57 51°36.823 2°39.23 16.9 346 17.6 101310 92
2001-08-13 12:58 51°36.614 2°39.141 15.8 348 17.6 101350 92
2001-08-13 12:59 51°36.395 2°39.04 19.1 349 17.6 101300 92
2001-08-13 13:00 51°36.182 2°38.952 19 347 17.6 101290 92
2001-08-13 13:01 51°35.968 2°38.849 17.7 351 17.5 101320 92
2001-08-13 13:02 51°35.757 2°38.767 12.8 349 17.5 101310 91
2001-08-13 13:03 51°35.544 2°38.689 18.7 351 17.5 101310 92
2001-08-13 13:04 51°35.334 2°38.605 17 348 17.5 101310 92
2001-08-13 13:05 51°35.123 2°38.509 17.3 350 17.5 101300 92
2001-08-13 13:06 51°34.907 2°38.427 19.5 344 17.4 101320 92
2001-08-13 13:07 51°34.694 2°38.358 16.6 347 17.4 101300 92
2001-08-13 13:08 51°34.474 2°38.273 17.4 346 17.4 101310 93
2001-08-13 13:09 51°34.268 2°38.186 18.3 349 17.3 101330 93
2001-08-13 13:10 51°34.079 2°38.112 16.8 348 17.3 101350 93
2001-08-13 13:11 51°33.87 2°38.02 15.4 348 17.3 101340 93
2001-08-13 13:12 51°33.656 2°37.925 15.6 347 17.3 101320 93
2001-08-13 13:13 51°33.452 2°37.83 15.6 346 17.3 101310 93
2001-08-13 13:14 51°33.24 2°37.73 18.5 349 17.3 101320 93
2001-08-13 13:15 51°33.035 2°37.604 19 354 17.3 101330 93
2001-08-13 13:16 51°32.829 2°37.482 18.2 351 17.3 101310 93
2001-08-13 13:17 51°32.622 2°37.356 16.9 352 17.3 101320 93
2001-08-13 13:18 51°32.421 2°37.241 18 346 17.3 101280 92
2001-08-13 13:19 51°32.214 2°37.121 17.6 354 17.3 101320 92
2001-08-13 13:20 51°32.001 2°36.996 17.9 352 17.3 101320 92
2001-08-13 13:21 51°31.795 2°36.883 18.2 351 17.3 101310 92
2001-08-13 13:22 51°31.595 2°36.765 16.5 350 17.3 101320 92
2001-08-13 13:23 51°31.377 2°36.661 20.1 346 17.3 101330 92
2001-08-13 13:24 51°31.177 2°36.586 16.3 349 17.3 101360 92
2001-08-13 13:25 51°30.966 2°36.497 17.1 347 17.3 101300 92
2001-08-13 13:26 51°30.744 2°36.406 16.1 346 17.4 101340 93
2001-08-13 13:27 51°30.534 2°36.364 16.8 326 17.3 101330 92
2001-08-13 13:28 51°30.309 2°36.37 19 337 17.3 101320 92
2001-08-13 13:29 51°30.097 2°36.37 14.8 334 17.3 101310 92
2001-08-13 13:30 51°29.876 2°36.399 13.8 331 17.4 101320 92
2001-08-13 13:31 51°29.656 2°36.45 16.8 325 17.4 101310 92
2001-08-13 13:32 51°29.436 2°36.484 17.2 322 17.4 101340 92
2001-08-13 13:33 51°29.213 2°36.513 16.9 333 17.4 101320 92
2001-08-13 13:34 51°28.995 2°36.535 15.2 328 17.4 101320 92
2001-08-13 13:35 51°28.772 2°36.554 16.4 327 17.4 101310 92
2001-08-13 13:36 51°28.551 2°36.597 17.3 325 17.4 101320 92
2001-08-13 13:37 51°28.329 2°36.657 14.5 323 17.4 101320 91
2001-08-13 13:38 51°28.104 2°36.743 15.2 329 17.4 101310 91
2001-08-13 13:39 51°27.892 2°36.806 17 319 17.4 101300 91
2001-08-13 13:40 51°27.676 2°36.903 17.6 317 17.4 101300 91
2001-08-13 13:41 51°27.474 2°37.052 16.5 313 17.4 101310 91
2001-08-13 13:42 51°27.275 2°37.214 15.3 304 17.4 101300 91
2001-08-13 13:43 51°27.083 2°37.398 11.5 295 17.5 101320 91
2001-08-13 13:44 51°26.892 2°37.587 13.5 308 17.5 101320 91
2001-08-13 13:45 51°26.698 2°37.774 14.9 306 17.5 101330 90
2001-08-13 13:46 51°26.511 2°37.963 13.5 307 17.6 101330 90
2001-08-13 13:47 51°26.325 2°38.156 13.9 302 17.6 101320 90
2001-08-13 13:48 51°26.132 2°38.352 13 299 17.6 101320 90
2001-08-13 13:49 51°25.949 2°38.543 10.2 299 17.6 101330 90
2001-08-13 13:50 51°25.766 2°38.744 12.5 301 17.7 101350 90
2001-08-13 13:51 51°25.582 2°38.943 13.4 304 17.7 101330 89
2001-08-13 13:52 51°25.39 2°39.129 11.4 297 17.7 101320 89
2001-08-13 13:53 51°25.191 2°39.302 14.5 307 17.8 101320 89
2001-08-13 13:54 51°24.995 2°39.463 12.9 300 17.8 101320 89
2001-08-13 13:55 51°24.831 2°39.711 9.5 285 17.8 101340 89
2001-08-13 13:56 51°24.671 2°39.951 10.3 294 17.8 101340 89
2001-08-13 13:57 51°24.519 2°40.209 10 284 17.9 101340 89
2001-08-13 13:58 51°24.35 2°40.44 13.7 311 17.9 101340 89
2001-08-13 13:59 51°24.171 2°40.652 9.3 291 17.9 101330 89
2001-08-13 14:00 51°23.984 2°40.855 9.9 290 18 101320 89
2001-08-13 14:01 51°23.832 2°41.104 13.4 270 17.9 101310 88
2001-08-13 14:02 51°23.682 2°41.364 8.4 293 18 101350 89
2001-08-13 14:03 51°23.532 2°41.62 11.9 279 17.9 101320 88
2001-08-13 14:04 51°23.382 2°41.872 12.8 300 17.9 101350 89
2001-08-13 14:05 51°23.207 2°42.082 10.3 296 17.9 101320 89
2001-08-13 14:06 51°23.046 2°42.331 9.8 282 17.9 101340 89
2001-08-13 14:07 51°22.878 2°42.532 12.6 297 17.9 101320 89
2001-08-13 14:08 51°22.697 2°42.731 13.7 300 17.9 101330 89
2001-08-13 14:09 51°22.517 2°42.955 9 291 17.9 101320 89
2001-08-13 14:10 51°22.35 2°43.167 11.9 298 17.9 101340 89
2001-08-13 14:11 51°22.169 2°43.371 14.1 296 17.9 101330 89
2001-08-13 14:12 51°21.985 2°43.566 14.3 300 17.9 101340 89
2001-08-13 14:13 51°21.791 2°43.766 12.3 304 17.9 101330 89
2001-08-13 14:14 51°21.612 2°43.956 12.2 303 17.9 101340 89
2001-08-13 14:15 51°21.453 2°44.199 13.1 301 17.9 101340 89
2001-08-13 14:16 51°21.246 2°44.321 16.9 321 17.9 101300 88
2001-08-13 14:17 51°21.029 2°44.409 15.8 312 17.9 101310 88
2001-08-13 14:18 51°20.835 2°44.573 15.7 302 17.9 101330 89
2001-08-13 14:19 51°20.682 2°44.819 10.2 272 17.9 101350 89
2001-08-13 14:20 51°20.566 2°45.106 11.1 279 17.9 101350 88
2001-08-13 14:21 51°20.432 2°45.392 9.1 299 17.9 101360 89
2001-08-13 14:22 51°20.302 2°45.659 10 295 17.9 101370 88
2001-08-13 14:23 51°20.171 2°45.935 13.3 280 17.9 101360 88
2001-08-13 14:24 51°20.044 2°46.23 12.1 271 17.9 101350 88
2001-08-13 14:25 51°19.92 2°46.506 12.5 273 18 101350 88
2001-08-13 14:26 51°19.809 2°46.805 12.1 278 18 101350 88
2001-08-13 14:27 51°19.689 2°47.098 9 280 18 101350 88
2001-08-13 14:28 51°19.568 2°47.389 13.4 274 18 101350 88
2001-08-13 14:29 51°19.443 2°47.673 9.5 278 18 101370 88
2001-08-13 14:30 51°19.323 2°47.963 11.3 275 18.1 101370 88
2001-08-13 14:31 51°19.206 2°48.255 11.5 279 18.1 101370 88
2001-08-13 14:32 51°19.083 2°48.552 11.8 273 18.1 101360 88
2001-08-13 14:33 51°18.972 2°48.849 10 268 18.1 101370 88
2001-08-13 14:34 51°18.87 2°49.174 11.4 262 18.1 101360 88
2001-08-13 14:35 51°18.761 2°49.479 10.8 273 18.2 101350 88
2001-08-13 14:36 51°18.647 2°49.765 9.7 271 18.2 101350 88
2001-08-13 14:37 51°18.526 2°50.062 10.1 267 18.2 101350 87
2001-08-13 14:38 51°18.406 2°50.371 10 268 18.2 101350 88
2001-08-13 14:39 51°18.267 2°50.646 10.9 280 18.2 101350 88
2001-08-13 14:40 51°18.126 2°50.919 11.3 270 18.2 101360 87
2001-08-13 14:41 51°17.993 2°51.184 11.1 273 18.2 101360 87
2001-08-13 14:42 51°17.845 2°51.46 12.7 279 18.2 101360 87
2001-08-13 14:43 51°17.699 2°51.722 9.4 274 18.2 101360 87
2001-08-13 14:44 51°17.536 2°51.988 8.8 289 18.2 101360 87
2001-08-13 14:45 51°17.358 2°52.212 11.6 280 18.2 101360 87
2001-08-13 14:46 51°17.165 2°52.405 12.1 301 18.2 101360 87
2001-08-13 14:47 51°16.968 2°52.583 10.4 303 18.3 101360 87
2001-08-13 14:48 51°16.781 2°52.784 9.1 301 18.3 101360 87
2001-08-13 14:49 51°16.59 2°52.975 10.6 308 18.3 101360 87
2001-08-13 14:50 51°16.403 2°53.154 8.5 296 18.3 101360 87
2001-08-13 14:51 51°16.213 2°53.346 9.6 298 18.3 101360 87
2001-08-13 14:52 51°16.017 2°53.517 8.3 296 18.3 101360 87
2001-08-13 14:53 51°15.822 2°53.712 7.5 288 18.4 101360 87
2001-08-13 14:54 51°15.633 2°53.883 7.7 296 18.4 101370 87
2001-08-13 14:55 51°15.441 2°54.06 7 296 18.4 101360 87
2001-08-13 14:56 51°15.238 2°54.233 8.9 311 18.4 101350 87
2001-08-13 14:57 51°15.042 2°54.401 7.1 290 18.4 101360 87
2001-08-13 14:58 51°14.844 2°54.569 9.2 303 18.5 101370 87
2001-08-13 14:59 51°14.653 2°54.728 8.7 306 18.5 101370 87
2001-08-13 15:00 51°14.459 2°54.916 5.6 289 18.5 101380 87
2001-08-13 15:01 51°14.323 2°55.152 3.3 323 18.5 101390 88
2001-08-13 15:02 51°14.188 2°55.362 6.1 318 18.6 101390 88
2001-08-13 15:03 51°14.057 2°55.464 7.5 340 18.7 101400 87
2001-08-13 15:04 51°13.956 2°55.534 4.2 308 18.8 101400 86
2001-08-13 15:05 51°13.876 2°55.591 4.4 315 19 101380 85
2001-08-13 15:06 51°13.813 2°55.637 4.2 358 19.2 101390 84
2001-08-13 15:07 51°13.764 2°55.69 4.5 253 19.4 101390 83
2001-08-13 15:08 51°13.729 2°55.752 4 196 19.6 101400 82
2001-08-13 15:09 51°13.706 2°55.818 2.8 203 19.7 101400 81
2001-08-13 15:10 51°13.69 2°55.886 6.1 204 19.8 101390 79
2001-08-13 15:11 51°13.678 2°55.92 4.8 232 19.8 101390 79
2001-08-13 15:12 51°13.677 2°55.925 3.7 229 19.9 101390 79
2001-08-13 15:13 51°13.677 2°55.924 3 203 19.9 101390 78